createdAt,value
2023-03-28T00:02:01.435Z,-3.80
2023-03-28T00:04:16.582Z,-3.80
2023-03-28T00:06:33.690Z,-3.80
2023-03-28T00:08:53.821Z,-3.90
2023-03-28T00:11:10.362Z,-3.80
2023-03-28T00:13:25.034Z,-3.80
2023-03-28T00:15:39.269Z,-3.80
2023-03-28T00:17:58.435Z,-3.80
2023-03-28T00:20:30.565Z,-3.80
2023-03-28T00:22:45.803Z,-3.80
2023-03-28T00:24:57.715Z,-3.80
2023-03-28T00:27:13.006Z,-3.80
2023-03-28T00:29:32.566Z,-3.90
2023-03-28T00:31:47.490Z,-3.80
2023-03-28T00:34:03.140Z,-3.80
2023-03-28T00:36:26.807Z,-3.80
2023-03-28T00:38:44.262Z,-3.80
2023-03-28T00:40:58.420Z,-3.80
2023-03-28T00:43:22.095Z,-3.80
2023-03-28T00:45:45.413Z,-3.80
2023-03-28T00:48:02.366Z,-3.80
2023-03-28T00:50:27.646Z,-3.80
2023-03-28T00:52:47.419Z,-3.80
2023-03-28T00:55:04.859Z,-3.80
2023-03-28T00:57:33.268Z,-3.80
2023-03-28T00:59:45.536Z,-3.80
2023-03-28T01:02:00.196Z,-3.70
2023-03-28T01:04:10.518Z,-3.70
2023-03-28T01:06:22.756Z,-3.80
2023-03-28T01:08:36.482Z,-3.70
2023-03-28T01:10:46.025Z,-3.70
2023-03-28T01:12:58.158Z,-3.70
2023-03-28T01:15:09.180Z,-3.70
2023-03-28T01:17:18.226Z,-3.70
2023-03-28T01:19:42.890Z,-3.70
2023-03-28T01:22:14.006Z,-3.70
2023-03-28T01:24:57.320Z,-3.70
2023-03-28T01:27:11.893Z,-3.70
2023-03-28T01:29:55.302Z,-3.80
2023-03-28T01:32:38.790Z,-3.80
2023-03-28T01:35:30.150Z,-3.90
2023-03-28T01:37:46.071Z,-3.80
2023-03-28T01:40:12.710Z,-3.80
2023-03-28T01:42:32.056Z,-3.80
2023-03-28T01:44:46.660Z,-3.80
2023-03-28T01:47:01.025Z,-3.80
2023-03-28T01:49:18.354Z,-3.80
2023-03-28T01:51:37.833Z,-3.80
2023-03-28T01:53:52.550Z,-3.80
2023-03-28T01:56:07.993Z,-3.80
2023-03-28T01:58:22.481Z,-3.80
2023-03-28T02:00:34.828Z,-3.80
2023-03-28T02:02:49.541Z,-3.80
2023-03-28T02:05:00.256Z,-3.80
2023-03-28T02:07:11.104Z,-3.80
2023-03-28T02:09:25.143Z,-3.80
2023-03-28T02:11:35.615Z,-3.80
2023-03-28T02:13:48.613Z,-3.90
2023-03-28T02:16:00.416Z,-3.90
2023-03-28T02:18:14.631Z,-3.90
2023-03-28T02:20:26.825Z,-3.90
2023-03-28T02:22:39.743Z,-3.90
2023-03-28T02:24:51.965Z,-3.90
2023-03-28T02:27:00.884Z,-3.90
2023-03-28T02:29:11.330Z,-3.90
2023-03-28T02:31:21.431Z,-3.90
2023-03-28T02:33:38.157Z,-3.80
2023-03-28T02:35:55.675Z,-3.80
2023-03-28T02:38:13.192Z,-3.80
2023-03-28T02:40:47.995Z,-3.80
2023-03-28T02:43:32.330Z,-3.80
2023-03-28T02:46:10.396Z,-3.80
2023-03-28T02:48:31.895Z,-3.80
2023-03-28T02:50:50.311Z,-3.80
2023-03-28T02:53:04.829Z,-3.80
2023-03-28T02:55:23.199Z,-3.80
2023-03-28T02:57:38.688Z,-3.80
2023-03-28T02:59:54.688Z,-3.80
2023-03-28T03:02:05.355Z,-3.80
2023-03-28T03:04:17.307Z,-3.80
2023-03-28T03:06:26.072Z,-3.80
2023-03-28T03:08:34.871Z,-3.80
2023-03-28T03:10:43.817Z,-3.80
2023-03-28T03:12:54.400Z,-3.80
2023-03-28T03:15:04.257Z,-3.80
2023-03-28T03:17:12.790Z,-3.80
2023-03-28T03:19:21.418Z,-3.80
2023-03-28T03:21:30.356Z,-3.80
2023-03-28T03:23:38.731Z,-3.70
2023-03-28T03:25:50.850Z,-3.70
2023-03-28T03:28:02.056Z,-3.70
2023-03-28T03:30:12.162Z,-3.70
2023-03-28T03:32:20.477Z,-3.70
2023-03-28T03:38:47.769Z,-3.70
2023-03-28T03:40:56.605Z,-3.60
2023-03-28T03:43:06.792Z,-3.60
2023-03-28T03:47:24.318Z,-3.60
2023-03-28T03:49:32.570Z,-3.60
2023-03-28T03:51:41.354Z,-3.60
2023-03-28T03:56:02.270Z,-3.60
2023-03-28T03:58:13.170Z,-3.60
2023-03-28T04:00:21.947Z,-3.60
2023-03-28T04:02:30.768Z,-3.60
2023-03-28T04:04:40.716Z,-3.60
2023-03-28T04:06:49.391Z,-3.70
2023-03-28T04:08:58.170Z,-3.70
2023-03-28T04:11:07.950Z,-3.70
2023-03-28T04:13:18.198Z,-3.70
2023-03-28T04:15:26.890Z,-3.70
2023-03-28T04:17:36.267Z,-3.70
2023-03-28T04:19:46.770Z,-3.80
2023-03-28T04:21:57.701Z,-3.70
2023-03-28T04:24:06.932Z,-3.80
2023-03-28T05:11:49.820Z,-3.50
2023-03-28T05:13:59.664Z,-3.50
2023-03-28T05:16:09.324Z,-3.50
2023-03-28T05:20:27.029Z,-3.40
2023-03-28T05:22:36.376Z,-3.40
2023-03-28T05:24:45.398Z,-3.40
2023-03-28T05:26:54.407Z,-3.40
2023-03-28T05:31:14.361Z,-3.40
2023-03-28T05:33:23.033Z,-3.40
2023-03-28T05:35:31.943Z,-3.40
2023-03-28T05:37:42.994Z,-3.40
2023-03-28T05:39:52.928Z,-3.40
2023-03-28T05:42:01.679Z,-3.20
2023-03-28T05:44:11.457Z,-3.30
2023-03-28T05:46:20.810Z,-3.20
2023-03-28T05:48:29.259Z,-3.10
2023-03-28T05:50:38.045Z,-3.10
2023-03-28T05:52:47.144Z,-3.00
2023-03-28T05:54:56.471Z,-3.00
2023-03-28T05:57:05.183Z,-3.00
2023-03-28T05:59:15.656Z,-3.00
2023-03-28T06:01:27.909Z,-3.00
2023-03-28T06:03:40.633Z,-3.10
2023-03-28T06:05:49.732Z,-3.00
2023-03-28T06:07:58.629Z,-3.00
2023-03-28T06:10:08.468Z,-3.00
2023-03-28T06:12:17.534Z,-2.90
2023-03-28T06:16:37.289Z,-3.00
2023-03-28T06:18:45.814Z,-3.00
2023-03-28T06:20:54.903Z,-3.00
2023-03-28T06:23:04.793Z,-3.00
2023-03-28T06:25:13.554Z,-3.00
2023-03-28T06:27:22.316Z,-3.00
2023-03-28T06:29:32.440Z,-3.00
2023-03-28T06:31:40.902Z,-3.00
2023-03-28T06:33:50.315Z,-3.00
2023-03-28T06:35:59.125Z,-3.00
2023-03-28T06:38:08.181Z,-3.00
2023-03-28T06:40:17.249Z,-3.00
2023-03-28T06:42:27.287Z,-3.00
2023-03-28T06:44:37.808Z,-3.00
2023-03-28T06:48:55.664Z,-2.90
2023-03-28T06:51:05.249Z,-2.80
2023-03-28T06:53:13.907Z,-2.70
2023-03-28T06:55:22.894Z,-2.60
2023-03-28T06:57:31.301Z,-2.60
2023-03-28T06:59:41.470Z,-2.60
2023-03-28T07:01:50.318Z,-2.60
2023-03-28T07:03:59.951Z,-2.60
2023-03-28T07:06:10.349Z,-2.60
2023-03-28T07:08:19.244Z,-2.50
2023-03-28T07:10:28.002Z,-2.60
2023-03-28T07:12:36.808Z,-2.60
2023-03-28T07:14:47.795Z,-2.50
2023-03-28T07:16:56.610Z,-2.60
2023-03-28T07:19:05.394Z,-2.60
2023-03-28T07:21:15.658Z,-2.60
2023-03-28T07:23:24.500Z,-2.50
2023-03-28T07:25:33.501Z,-2.60
2023-03-28T07:27:42.294Z,-2.60
2023-03-28T07:29:52.725Z,-2.60
2023-03-28T07:32:01.264Z,-2.70
2023-03-28T07:34:09.970Z,-2.50
2023-03-28T07:36:20.893Z,-2.60
2023-03-28T07:38:29.656Z,-2.50
2023-03-28T07:40:38.919Z,-2.50
2023-03-28T07:42:49.583Z,-2.50
2023-03-28T07:44:59.673Z,-2.60
2023-03-28T07:49:17.828Z,-2.60
2023-03-28T07:51:26.555Z,-2.50
2023-03-28T07:53:35.787Z,-2.40
2023-03-28T07:55:54.435Z,-2.40
2023-03-28T07:58:04.748Z,-2.40
2023-03-28T08:00:17.613Z,-2.30
2023-03-28T08:02:26.572Z,-2.20
2023-03-28T08:04:35.630Z,-2.30
2023-03-28T08:06:45.726Z,-2.10
2023-03-28T08:08:54.767Z,-2.20
2023-03-28T08:11:03.584Z,-2.30
2023-03-28T08:13:12.343Z,-2.20
2023-03-28T08:15:22.945Z,-2.20
2023-03-28T08:17:31.677Z,-2.20
2023-03-28T08:19:40.076Z,-2.10
2023-03-28T08:21:49.350Z,-2.00
2023-03-28T08:23:58.204Z,-1.90
2023-03-28T08:26:08.411Z,-1.80
2023-03-28T08:28:17.593Z,-1.80
2023-03-28T08:30:28.013Z,-1.50
2023-03-28T08:32:36.659Z,-1.50
2023-03-28T08:34:45.213Z,-1.40
2023-03-28T08:36:53.981Z,-1.30
2023-03-28T08:39:05.026Z,-1.10
2023-03-28T08:41:32.067Z,-1.40
2023-03-28T08:44:13.524Z,-1.40
2023-03-28T08:46:27.408Z,-1.50
2023-03-28T08:48:41.662Z,-1.20
2023-03-28T08:50:53.460Z,-1.00
2023-03-28T08:53:03.440Z,-0.40
2023-03-28T08:55:28.094Z,-0.10
2023-03-28T08:57:39.239Z,-0.40
2023-03-28T08:59:54.653Z,-1.50
2023-03-28T09:02:10.657Z,-2.10
2023-03-28T09:04:28.367Z,-2.30
2023-03-28T09:06:41.122Z,-2.30
2023-03-28T09:20:34.559Z,-2.40
2023-03-28T09:22:54.216Z,-2.30
2023-03-28T09:25:15.707Z,-2.50
2023-03-28T09:27:30.590Z,-2.50
2023-03-28T09:29:43.212Z,-2.60
2023-03-28T09:31:53.853Z,-2.70
2023-03-28T09:34:05.022Z,-2.50
2023-03-28T09:36:16.640Z,-2.50
2023-03-28T09:40:37.961Z,-2.40
2023-03-28T09:42:55.487Z,-2.60
2023-03-28T09:45:12.402Z,-2.60
2023-03-28T09:47:21.073Z,-2.80
2023-03-28T09:49:31.959Z,-2.90
2023-03-28T09:51:40.715Z,-2.80
2023-03-28T09:53:49.864Z,-2.80
2023-03-28T09:56:04.746Z,-2.70
2023-03-28T09:58:15.821Z,-2.50
2023-03-28T10:00:24.780Z,-2.50
2023-03-28T10:02:35.561Z,-2.30
2023-03-28T10:04:45.775Z,-2.30
2023-03-28T10:06:55.007Z,-2.40
2023-03-28T10:09:19.107Z,-2.30
2023-03-28T10:11:27.824Z,-2.20
2023-03-28T10:13:42.509Z,-2.10
2023-03-28T10:15:51.588Z,-1.90
2023-03-28T10:18:02.889Z,-1.90
2023-03-28T10:20:18.428Z,-1.90
2023-03-28T10:22:29.594Z,-1.90
2023-03-28T10:24:39.959Z,-2.10
2023-03-28T10:26:48.864Z,-2.10
2023-03-28T10:29:04.287Z,-1.90
2023-03-28T10:31:29.375Z,-1.90
2023-03-28T10:33:42.799Z,-1.80
2023-03-28T10:38:15.600Z,-1.70
2023-03-28T10:40:28.090Z,-1.60
2023-03-28T10:42:44.986Z,-1.50
2023-03-28T10:45:01.832Z,-1.40
2023-03-28T10:47:16.508Z,-1.20
2023-03-28T10:49:25.888Z,-1.30
2023-03-28T10:51:38.947Z,-1.60
2023-03-28T10:54:31.600Z,-1.80
2023-03-28T10:56:43.159Z,-1.90
2023-03-28T10:59:04.427Z,-1.80
2023-03-28T11:01:19.638Z,-2.10
2023-03-28T11:03:40.557Z,-2.00
2023-03-28T11:06:08.129Z,-2.00
2023-03-28T11:10:59.622Z,-1.60
2023-03-28T11:13:18.752Z,-1.60
2023-03-28T11:15:33.576Z,-1.50
2023-03-28T11:17:52.297Z,-1.70
2023-03-28T11:20:22.606Z,-2.20
2023-03-28T11:22:38.477Z,-2.10
2023-03-28T12:32:33.325Z,-1.50
